Connexion

10km

10 Km Corrida St Just en Chaussee du 17/12/17 (Reelle 9,85) Scratch
Rang Dossard Nom Prénom Temps Cat Rang Cat Ecart Ecart Cat Club Vitesse Km/h Temps au Km
1 32 DEWANCKELE Eric 00:33:22 SEM 1 00:00:00 00:00:00 ACA BEAUVAIS 17,712 03:23
2 112 HIRARD MATTHIEU 00:35:25 SEM 2 00:02:03 00:02:03 AS Agnetz Athlétisme 16,687 03:36
3 194 TALLON Romain 00:35:30 SEM 3 00:02:08 00:02:08 16,648 03:36
4 217 MIGNOT Boris 00:35:39 V1M 1 00:02:17 00:00:00 16,578 03:37
5 57 GUERY Benjamin 00:35:49 SEM 4 00:02:27 00:02:27 Saone mont d'or nature 16,501 03:38
6 95 DELAMARE David 00:36:11 V1M 2 00:02:49 00:00:32 AC Clermontois 16,333 03:40
7 195 DELATTRE Romain 00:36:13 SEM 5 00:02:51 00:02:51 16,318 03:41
8 92 INGRAIN Christophe 00:36:25 V1M 3 00:03:03 00:00:46 60056 16,229 03:42
9 201 RAYE Sebastien 00:36:30 V1M 4 00:03:08 00:00:51 16,192 03:42
10 207 STIEVENART Alexandre 00:36:31 SEM 6 00:03:09 00:03:09 16,184 03:42
11 216 COCUELLE Mickael 00:36:33 V1M 5 00:03:11 00:00:54 16,170 03:43
12 185 BORGES Anthony 00:37:10 SEM 7 00:03:48 00:03:48 15,901 03:46
13 15 LEBRUN Jérémy 00:37:11 SEM 8 00:03:49 00:03:49 Saint Just Athlétisme 15,894 03:46
14 182 WATTIER Mathieu 00:37:36 SEM 9 00:04:14 00:04:14 15,718 03:49
15 77 MONVOISIN STEPHANE 00:37:39 V1M 6 00:04:17 00:02:00 RABE 15,697 03:49
16 130 MELKA Gérard 00:38:11 V2M 1 00:04:49 00:00:00 ASCD Jogging 15,478 03:53
17 215 PHILIPPE Paul 00:38:43 SEM 10 00:05:21 00:05:21 15,265 03:56
18 78 OLLIVIER DENIS 00:38:51 V1M 7 00:05:29 00:03:12 RABE 15,212 03:57
19 16 FERLAUD William 00:39:00 JUM 1 00:05:38 00:00:00 SAINT JUST ATHLETISME 15,154 03:58
20 39 COUSIN Théo 00:39:02 SEM 11 00:05:40 00:05:40 Astre Creillois 15,141 03:58
21 132 PEDROSA Kevin 00:39:13 JUM 2 00:05:51 00:00:13 ASCD Jogging 15,070 03:59
22 111 TYRANOWICZ DAMIEN 00:39:15 V1M 8 00:05:53 00:03:36 AS Agnetz Athlétisme 15,057 03:59
23 86 GOACOLOU sylvain 00:39:27 SEM 12 00:06:05 00:06:05 14,981 04:00
24 108 CURTAT Jérome 00:39:41 V1M 9 00:06:19 00:04:02 AC Clermontois 14,893 04:02
25 115 LOUIS ALAIN 00:39:45 V2M 2 00:06:23 00:01:34 AS Agnetz Athlétisme 14,868 04:02
26 24 CHAUVEAU Adrien 00:39:52 SEM 13 00:06:30 00:06:30 ASPTT COMPIEGNE 14,824 04:03
27 143 DUQUESNE François 00:40:00 SEM 14 00:06:38 00:06:38 14,775 04:04
28 179 LOUIS Nicolas 00:40:13 SEM 15 00:06:51 00:06:51 14,695 04:05
29 91 BAUCHY Damien 00:40:22 V1M 10 00:07:00 00:04:43 Beauvais OUC 14,641 04:06
30 134 SOUVIGNHEC Stéphane 00:40:26 V1M 11 00:07:04 00:04:47 ASCD Jogging 14,617 04:06
31 14 BLUCHE yves 00:40:32 V2M 3 00:07:10 00:02:21 mouy atac 14,581 04:07
32 208 LENTINI Tony 00:40:54 V1M 12 00:07:32 00:05:15 14,450 04:09
33 109 LOPES ALEXANDRE 00:41:02 V1M 13 00:07:40 00:05:23 AS Agnetz Athlétisme 14,403 04:10
34 116 BACON Hervé 00:41:04 V2M 4 00:07:42 00:02:53 ASCD Jogging 14,391 04:10
35 103 DELETRE Ludovic 00:41:07 V1M 14 00:07:45 00:05:28 AC Clermontois 14,374 04:10
36 8 HEMMER Colas 00:41:29 SEM 16 00:08:07 00:08:07 14,247 04:13
37 165 LECOMTE Stephane 00:41:34 V1M 15 00:08:12 00:05:55 14,218 04:13
38 105 BOIREAU Pierrick 00:41:35 SEM 17 00:08:13 00:08:13 AC Clermontois 14,212 04:13
39 31 LHERMITTE Emerick 00:41:36 SEM 18 00:08:14 00:08:14 14,207 04:13
40 104 ROWLANDSON Emily 00:41:53 SEF 1 00:08:31 00:00:00 AC Clermontois 14,111 04:15
41 193 ROSANT Yann 00:41:54 V1M 16 00:08:32 00:06:15 14,105 04:15
42 58 CERJAK fabien 00:41:55 SEM 19 00:08:33 00:08:33 14,099 04:15
43 218 DAMEZ Olivier 00:42:17 V1M 17 00:08:55 00:06:38 13,977 04:18
44 177 QUILLET Johan 00:42:34 V1M 18 00:09:12 00:06:55 13,884 04:19
45 172 NAY Jean Pierre 00:42:41 V1M 19 00:09:19 00:07:02 13,846 04:20
46 202 TUTAKOWSKI Florian 00:42:45 SEM 20 00:09:23 00:09:23 13,825 04:20
47 11 THOMAS julien 00:42:58 SEM 21 00:09:36 00:09:36 saint just athlétisme 13,755 04:22
48 178 PRUVOST Patrick 00:42:59 V2M 5 00:09:37 00:04:48 13,750 04:22
49 189 LALLARD Frederic 00:43:01 V2M 6 00:09:39 00:04:50 13,739 04:22
50 210 BUREAU Frederic 00:43:05 V2M 7 00:09:43 00:04:54 13,718 04:22
51 1 FAUVERGUE BENJAMIN 00:43:25 SEM 22 00:10:03 00:10:03 AMIENS UC 13,612 04:24
52 28 HAMONIC PHILIPPE 00:43:26 V2M 8 00:10:04 00:05:15 13,607 04:25
53 152 DUMONT Thibaut 00:43:43 SEM 23 00:10:21 00:10:21 13,519 04:26
54 94 DUCAUROY Frédéric 00:43:49 V1M 20 00:10:27 00:08:10 AC Clermontois 13,488 04:27
55 34 PAILLARD Aurélie 00:43:50 SEF 2 00:10:28 00:01:57 VGA COMPIEGNE 13,483 04:27
56 22 VAN DOOREN jeremy 00:43:50 SEM 24 00:10:28 00:10:28 13,483 04:27
57 51 ARNAUD victor 00:43:55 SEM 25 00:10:33 00:10:33 13,457 04:28
58 74 FOULDRIN Antoine 00:44:02 SEM 26 00:10:40 00:10:40 13,422 04:28
59 41 DUPONT Lucine 00:44:02 SEF 3 00:10:40 00:02:09 13,422 04:28
60 40 AZDAD Ali 00:44:06 SEM 27 00:10:44 00:10:44 Athletic club de Margny les compiegne 13,401 04:29
61 84 JIOLAT Valentine 00:44:08 SEF 4 00:10:46 00:02:15 13,391 04:29
62 164 MINARD Gilles 00:44:27 V2M 9 00:11:05 00:06:16 13,296 04:31
63 72 PICARD Rémy 00:44:29 V3M 1 00:11:07 00:00:00 As Blacourt 13,286 04:31
64 197 VINCENT Guillaume 00:44:32 SEM 28 00:11:10 00:11:10 13,271 04:31
65 190 RUIZ Benoit 00:44:33 V1M 21 00:11:11 00:08:54 13,266 04:31
66 167 TALLON Fabrice 00:44:35 V2M 10 00:11:13 00:06:24 13,256 04:32
67 153 COHIN matthieu 00:44:49 CAM 1 00:11:27 00:00:00 13,187 04:33
68 196 LEGRAND Gervais 00:44:52 V2M 11 00:11:30 00:06:41 13,172 04:33
69 88 BOUTILLIER PASCAL 00:44:52 V2M 12 00:11:30 00:06:41 13,172 04:33
70 89 LECOMTE Pascal 00:44:57 V2M 13 00:11:35 00:06:46 13,148 04:34
71 82 CHARLEY Mickael 00:44:57 SEM 29 00:11:35 00:11:35 13,148 04:34
72 121 CHATELAINT Michel 00:45:07 V3M 2 00:11:45 00:00:38 ASCD Jogging 13,099 04:35
73 44 GODART pierre 00:45:15 V2M 14 00:11:53 00:07:04 L'ARDENTE 13,061 04:36
74 13 LAJOIX Valérie 00:45:25 V2F 1 00:12:03 00:00:00 DRANCY TRIATHLON 13,013 04:37
75 200 DELILLE Christophe 00:45:32 V1M 22 00:12:10 00:09:53 12,980 04:37
76 73 BARBIER Sébastien 00:45:33 SEM 30 00:12:11 00:12:11 12,975 04:37
77 87 HERMANT Philippe 00:45:38 V2M 15 00:12:16 00:07:27 Les Pas Pressés 12,951 04:38
78 209 HAUTECLOCHE Morgan 00:45:39 SEM 31 00:12:17 00:12:17 12,946 04:38
79 100 DOGOCHO Marc 00:46:04 V1M 23 00:12:42 00:10:25 AC Clermontois 12,829 04:41
80 166 PELLETIER Gerald 00:46:04 V3M 3 00:12:42 00:01:35 12,829 04:41
81 35 CATHELIN Raphaël 00:46:06 V1M 24 00:12:44 00:10:27 12,820 04:41
82 174 CHEPTOU David 00:46:06 SEM 32 00:12:44 00:12:44 12,820 04:41
83 55 VACANT Cécile 00:46:09 SEF 5 00:12:47 00:04:16 Bouc Athlétisme 12,806 04:41
84 29 PADILLA Xavier 00:46:13 SEM 33 00:12:51 00:12:51 12,788 04:42
85 176 SPIGUELAIRE Sebastien 00:46:16 V1M 25 00:12:54 00:10:37 12,774 04:42
86 97 CHAUVEL Sébastien 00:46:20 V1M 26 00:12:58 00:10:41 AC Clermontois 12,755 04:42
87 93 HUSSON pascal 00:46:25 V1M 27 00:13:03 00:10:46 AC Clermontois 12,732 04:43
88 27 FREVILLE Matthieu 00:46:30 SEM 34 00:13:08 00:13:08 12,710 04:43
89 212 DELACOURT Mikael 00:46:34 V1M 28 00:13:12 00:10:55 12,691 04:44
90 96 MORIN Cédric 00:46:39 V1M 29 00:13:17 00:11:00 AC Clermontois 12,669 04:44
91 26 BONNET Marine 00:46:53 JUF 1 00:13:31 00:00:00 Amiens UC 12,606 04:46
92 163 GOUGANE Lorsen 00:47:02 V4M 1 00:13:40 00:00:00 12,566 04:46
93 113 CHERFILS ANTHONY 00:47:05 SEM 35 00:13:43 00:13:43 AS Agnetz Athlétisme 12,552 04:47
94 114 CHARPENTIER JEREMY 00:47:06 SEM 36 00:13:44 00:13:44 AS Agnetz Athlétisme 12,548 04:47
95 135 VALENTIN Olivier 00:47:15 V1M 30 00:13:53 00:11:36 ASCD Jogging 12,508 04:48
96 160 RAYER Christian 00:47:32 V3M 4 00:14:10 00:03:03 12,433 04:50
97 127 GARNIER Philippe 00:47:35 V2M 16 00:14:13 00:09:24 ASCD Jogging 12,420 04:50
98 204 DORARD Alexis 00:47:48 SEM 37 00:14:26 00:14:26 12,364 04:51
99 36 DEBOVES Sébastien 00:47:49 V1M 31 00:14:27 00:12:10 12,360 04:51
100 203 MARVILLE Claude 00:47:49 V1M 32 00:14:27 00:12:10 12,360 04:51
101 213 REGNAULT Cedric 00:47:55 V1M 33 00:14:33 00:12:16 12,334 04:52
102 90 RICHY Wirlfrid 00:48:02 SEM 38 00:14:40 00:14:40 12,304 04:53
103 66 PAUCELLIER romaric 00:48:12 SEM 39 00:14:50 00:14:50 les pas presses 12,261 04:54
104 102 BENDOUKHANE Sabrina 00:48:32 V1F 1 00:15:10 00:00:00 AC Clermontois 12,177 04:56
105 123 DAD Géraraly 00:48:37 V2M 17 00:15:15 00:10:26 ASCD Jogging 12,156 04:56
106 171 DELAPORTE Herve 00:48:45 V3M 5 00:15:23 00:04:16 12,123 04:57
107 173 COQUET David 00:48:50 V1M 34 00:15:28 00:13:11 12,102 04:57
108 101 QUINTON Samuel 00:48:50 SEM 40 00:15:28 00:15:28 AC Clermontois 12,102 04:57
109 192 PILLON Johanna 00:49:06 SEF 6 00:15:44 00:07:13 12,037 04:59
110 191 PILLON Emmanuelle 00:49:06 V2F 2 00:15:44 00:03:41 12,037 04:59
111 162 GBAGUIGUI Doloresse 00:49:12 V1F 2 00:15:50 00:00:40 12,012 05:00
112 42 CARON sebastien 00:49:15 SEM 41 00:15:53 00:15:53 12,000 05:00
113 120 CHATELAINT Cristina 00:49:23 V2F 3 00:16:01 00:03:58 ASCD Jogging 11,968 05:01
114 49 ROUSSELIN antoine 00:49:34 V2M 18 00:16:12 00:11:23 L'ARDENTE 11,923 05:02
115 214 DOUMEYRON Marie 00:49:36 SEF 7 00:16:14 00:07:43 11,915 05:02
116 76 DUCROCQ JEROME 00:49:41 V1M 35 00:16:19 00:14:02 RABE 11,895 05:03
117 146 FONTAINE Florian 00:50:31 SEM 42 00:17:09 00:17:09 11,699 05:08
118 145 ROBERT Cédrick 00:50:31 SEM 43 00:17:09 00:17:09 11,699 05:08
119 85 HENON Mathieu 00:50:32 SEM 44 00:17:10 00:17:10 11,695 05:08
120 187 JORELLE Jacky 00:50:33 V3M 6 00:17:11 00:06:04 11,691 05:08
121 181 BOUVIER Jonathan 00:50:37 SEM 45 00:17:15 00:17:15 11,676 05:08
122 81 BIGOT emmanuel 00:50:42 V1M 36 00:17:20 00:15:03 ACA BEAUVAIS 11,657 05:09
123 18 GAS marc 00:50:52 V3M 7 00:17:30 00:06:23 s/l Montataire ac 11,619 05:10
124 156 MARQUET Laurent 00:50:55 V1M 37 00:17:33 00:15:16 Montataire 11,607 05:10
125 12 DELIHU alexis 00:50:55 V1M 38 00:17:33 00:15:16 11,607 05:10
126 98 LECAILLE LAURENT 00:51:02 V1M 39 00:17:40 00:15:23 AC Clermontois 11,581 05:11
127 148 DOURLENS Christophe 00:51:10 V1M 40 00:17:48 00:15:31 11,550 05:12
128 69 BOURGOIS MAXIME 00:51:14 SEM 46 00:17:52 00:17:52 11,535 05:12
129 67 REGLIN philippe 00:51:14 V1M 41 00:17:52 00:15:35 VERBERIE 11,535 05:12
130 60 SAUVAGE Elodie 00:51:27 SEF 8 00:18:05 00:09:34 11,487 05:13
131 180 DEHAIES Eric 00:52:00 SEM 47 00:18:38 00:18:38 11,365 05:17
132 23 VAN DOOREN damien 00:52:18 JUM 3 00:18:56 00:13:18 11,300 05:19
133 154 MEURANT Arnaud 00:52:25 SEM 48 00:19:03 00:19:03 11,275 05:19
134 80 BAUDOUX franck 00:52:34 V2M 19 00:19:12 00:14:23 ACA BEAUVAIS 11,243 05:20
135 211 ARASZKIEWIRZ Gerard 00:52:44 V3M 8 00:19:22 00:08:15 11,207 05:21
136 118 BARLET Bruno 00:53:07 V2M 20 00:19:45 00:14:56 ASCD Jogging 11,126 05:24
137 140 BRAILLY johann 00:53:08 V1M 42 00:19:46 00:17:29 11,123 05:24
138 59 LEFEVRE VIRGIL 00:53:31 SEM 49 00:20:09 00:20:09 11,043 05:26
139 199 DUBOC Eddy 00:53:31 V1M 43 00:20:09 00:17:52 11,043 05:26
140 155 CLABAUT Jessica 00:53:36 SEF 9 00:20:14 00:11:43 11,026 05:26
141 136 WARTEL Dominique 00:53:46 V2M 21 00:20:24 00:15:35 ASCD Jogging 10,992 05:28
142 159 DIOT Ludovic 00:53:54 SEM 50 00:20:32 00:20:32 Vivre athle breteuil 10,965 05:28
143 205 DEVARENNE Aurore 00:54:10 SEM 51 00:20:48 00:20:48 10,911 05:30
144 137 CHEPTOU Nathalie 00:54:11 V1F 3 00:20:49 00:05:39 Les Pas Pressés 10,907 05:30
145 198 DEBEAUVAIS Christian 00:54:11 V3M 9 00:20:49 00:09:42 10,907 05:30
146 131 ORNEME LOUKAKOU Christine 00:54:26 V1F 4 00:21:04 00:05:54 ASCD Jogging 10,857 05:32
147 79 CLABAUT Michael 00:54:30 V1M 44 00:21:08 00:18:51 ING SPORT 10,844 05:32
148 183 GARZONI Jean Luc 00:54:47 SEM 52 00:21:25 00:21:25 10,788 05:34
149 65 COHIN regis 00:54:49 V2M 22 00:21:27 00:16:38 aca beauvais 10,781 05:34
150 119 BLANCQUART Christian 00:54:52 V2M 23 00:21:30 00:16:41 ASCD Jogging 10,772 05:34
151 169 WATTIER Denis 00:54:53 V3M 10 00:21:31 00:10:24 10,768 05:34
152 170 EVRARD Patrick 00:55:03 V2M 24 00:21:41 00:16:52 10,736 05:35
153 10 FURLANETTO emilie 00:55:05 SEF 10 00:21:43 00:13:12 10,729 05:36
154 9 SARRADET Franck 00:55:05 V2M 25 00:21:43 00:16:54 10,729 05:36
155 158 CANONGE alexandra 00:55:29 SEF 11 00:22:07 00:13:36 10,652 05:38
156 128 HUON Célia 00:55:54 SEF 12 00:22:32 00:14:01 ASCD Jogging 10,572 05:41
157 54 VITTE Isabelle 00:55:55 V2F 4 00:22:33 00:10:30 10,569 05:41
158 184 TINTILLIER Sylvie 00:55:57 V2F 5 00:22:35 00:10:32 10,563 05:41
159 188 HEURTE Jean Noel 00:56:02 V3M 11 00:22:40 00:11:33 10,547 05:41
160 21 DUBOURDEAUX Emma 00:56:09 CAF 1 00:22:47 00:00:00 LES PAS PRESSES 10,525 05:42
161 117 BACON Veronique 00:56:15 V2F 6 00:22:53 00:10:50 ASCD Jogging 10,507 05:43
162 122 CHIFFE Dominik 00:56:21 V3M 12 00:22:59 00:11:52 ASCD Jogging 10,488 05:43
163 126 FELER Romane 00:56:28 SEF 13 00:23:06 00:14:35 ASCD Jogging 10,466 05:44
164 161 DENIAU Nadine 00:56:44 V3F 1 00:23:22 00:00:00 10,417 05:46
165 46 FONTAINE gwladys 00:56:45 V1F 5 00:23:23 00:08:13 L'ARDENTE 10,414 05:46
166 30 GAILHARD Charlotte 00:56:49 SEF 14 00:23:27 00:14:56 10,402 05:46
167 50 DUMONT Ludivine 00:56:56 SEF 15 00:23:34 00:15:03 10,381 05:47
168 83 PLANCHON Florian 00:56:56 SEM 53 00:23:34 00:23:34 10,381 05:47
169 61 DELMEE Marc 00:57:05 V2M 26 00:23:43 00:18:54 10,353 05:48
170 75 JAFFRE Julie 00:57:22 SEF 16 00:24:00 00:15:29 10,302 05:49
171 64 DUVAL Michaël 00:57:23 V1M 45 00:24:01 00:21:44 LES PAS PRESSES 10,299 05:50
172 219 CROISILLE Marvin 00:57:24 SEM 54 00:24:02 00:24:02 10,296 05:50
173 175 FIOUX Yaelle 00:57:33 V1F 6 00:24:11 00:09:01 10,269 05:51
174 20 DUBOURDEAUX Corinne 00:58:09 V1F 7 00:24:47 00:09:37 LES PAS PRESSES 10,163 05:54
175 206 COLNOT Sandrine 00:58:12 V1F 8 00:24:50 00:09:40 10,155 05:55
176 71 DAUCHY Jacques 00:58:21 V5M 1 00:24:59 00:00:00 As Blacourt 10,129 05:55
177 48 LE GOASCOZ marie 00:58:32 SEF 17 00:25:10 00:16:39 10,097 05:57
178 124 D'ANGELO Calogero 00:58:44 V2M 27 00:25:22 00:20:33 ASCD Jogging 10,062 05:58
179 129 MAAMRI  Nadia 00:58:46 V1F 9 00:25:24 00:10:14 ASCD Jogging 10,057 05:58
180 53 SKOWRON Jérôme 00:59:32 V1M 46 00:26:10 00:23:53 9,927 06:03
181 168 VITRAC Jean Louis 01:00:11 V3M 13 00:26:49 00:15:42 9,820 06:07
182 149 DUFOSSE Margaux 01:00:37 JUF 2 00:27:15 00:13:44 9,750 06:09
183 151 DELAFONTAINE Romain 01:00:38 SEM 55 00:27:16 00:27:16 9,747 06:09
184 147 LESIMPLE Emmanuel 01:00:40 V1M 47 00:27:18 00:25:01 9,742 06:10
185 68 PADOVANI Nathalie 01:01:17 V1F 10 00:27:55 00:12:45 9,644 06:13
186 133 SEMBLANET Guy 01:01:17 V3M 14 00:27:55 00:16:48 ASCD Jogging 9,644 06:13
187 6 GINGREAU Hélène 01:03:05 SEF 18 00:29:43 00:21:12 9,369 06:24
188 125 FALSON Jean-Marc 01:04:08 V3M 15 00:30:46 00:19:39 ASCD Jogging 9,215 06:31
189 186 LEONARD Olivier 01:04:08 V1M 48 00:30:46 00:28:29 9,215 06:31
190 139 CROISILLE Emilie 01:05:57 SEF 19 00:32:35 00:24:04 8,961 06:42
191 142 DEVERNE Cindy 01:05:57 SEF 20 00:32:35 00:24:04 8,961 06:42
192 52 VERNIER Christelle 01:08:40 V1F 11 00:35:18 00:20:08 8,607 06:58
193 3 HUGONIN Charlène 01:09:32 SEF 21 00:36:10 00:27:39 8,500 07:04
194 43 CNOCKAERT Perrine 01:10:21 SEF 22 00:36:59 00:28:28 8,401 07:09
195 141 BRAILLY severine 01:12:10 V1F 12 00:38:48 00:23:38 8,189 07:20
196 62 GALPIN henri 01:12:36 V5M 2 00:39:14 00:14:15 8,140 07:22
197 7 SOLER AUDREY 01:14:31 SEF 23 00:41:09 00:32:38 7,931 07:34
198 70 GANDON Deborah 01:14:31 SEF 24 00:41:09 00:32:38 As Blacourt 7,931 07:34
199 33 BAUDEWYNS ABBRUGIATI Alexandra 01:14:58 V1F 13 00:41:36 00:26:26 7,884 07:37
200 38 MALNOU sandrine 01:14:58 V1F 14 00:41:36 00:26:26 7,884 07:37
201 63 VINCENTI jean marc 01:35:11 V2M 28 01:01:49 00:57:00 6,209 09:40